Archival Weather

Prince Abdulmajeed Bin Abdula

Prince Abdulmajeed Bin Abdula, Saudi Arabia (OEAO)

Report from: Monday, May 23, 2022 5:00 PM UTC
Current time: Tuesday, August 16, 2022 8:10 AM UTC

Current weather
Weather history
Weather forecast

Temperature33.0°C (91.4°F)
Heat index30.6°C (87.1°F)
Dew point-4.0°C (24.8°F)
Winds 14 kts (7.2 m/s, 16.1 mph) North (360°)
Clouds Sky clear
Altimeter29.80 in.Hg (1009 mB)
Relative humidity9 %
Density altitude2,271 ft. (692 m)
Remarks Ceiling and visibility OK
No significant changes expected in the next two hours
Flight conditions Visual Meteorological Conditions
Raw dataOEAO 231700Z 36014KT CAVOK 33/M04 Q1009 NOSIG
An error has occurred. This application may no longer respond until reloaded. Reload 🗙